sensor_id;sensor_type;location;lat;lon;timestamp;P1;durP1;ratioP1;P2;durP2;ratioP2
10295;SDS011;5193;51.032;6.356;2023-07-02T00:01:08;8.70;;;3.40;;
10295;SDS011;5193;51.032;6.356;2023-07-02T00:03:33;12.13;;;3.90;;
10295;SDS011;5193;51.032;6.356;2023-07-02T00:05:59;8.80;;;4.23;;
10295;SDS011;5193;51.032;6.356;2023-07-02T00:08:24;7.53;;;3.83;;
10295;SDS011;5193;51.032;6.356;2023-07-02T00:10:50;8.57;;;3.93;;
10295;SDS011;5193;51.032;6.356;2023-07-02T00:13:16;9.20;;;4.33;;
10295;SDS011;5193;51.032;6.356;2023-07-02T00:15:41;8.97;;;4.43;;
10295;SDS011;5193;51.032;6.356;2023-07-02T00:18:07;10.33;;;4.00;;
10295;SDS011;5193;51.032;6.356;2023-07-02T00:20:33;8.73;;;4.53;;
10295;SDS011;5193;51.032;6.356;2023-07-02T00:23:03;10.70;;;4.67;;
10295;SDS011;5193;51.032;6.356;2023-07-02T00:25:29;12.13;;;5.03;;
10295;SDS011;5193;51.032;6.356;2023-07-02T00:27:54;15.90;;;4.97;;
10295;SDS011;5193;51.032;6.356;2023-07-02T00:30:20;8.60;;;4.73;;
10295;SDS011;5193;51.032;6.356;2023-07-02T00:32:45;13.50;;;5.20;;
10295;SDS011;5193;51.032;6.356;2023-07-02T00:35:11;9.77;;;5.30;;
10295;SDS011;5193;51.032;6.356;2023-07-02T00:37:37;11.20;;;4.90;;
10295;SDS011;5193;51.032;6.356;2023-07-02T00:40:02;8.87;;;5.23;;
10295;SDS011;5193;51.032;6.356;2023-07-02T00:42:28;11.43;;;5.63;;
10295;SDS011;5193;51.032;6.356;2023-07-02T00:44:55;7.83;;;4.90;;
10295;SDS011;5193;51.032;6.356;2023-07-02T00:47:22;17.70;;;6.00;;
10295;SDS011;5193;51.032;6.356;2023-07-02T00:49:48;11.07;;;5.60;;
10295;SDS011;5193;51.032;6.356;2023-07-02T00:52:15;9.23;;;5.63;;
10295;SDS011;5193;51.032;6.356;2023-07-02T00:54:41;12.20;;;5.43;;
10295;SDS011;5193;51.032;6.356;2023-07-02T00:57:07;15.30;;;6.17;;
10295;SDS011;5193;51.032;6.356;2023-07-02T00:59:33;14.00;;;6.77;;
10295;SDS011;5193;51.032;6.356;2023-07-02T01:02:00;14.30;;;6.73;;
10295;SDS011;5193;51.032;6.356;2023-07-02T01:04:26;12.27;;;6.67;;
10295;SDS011;5193;51.032;6.356;2023-07-02T01:06:52;15.20;;;7.70;;
10295;SDS011;5193;51.032;6.356;2023-07-02T01:09:22;14.57;;;6.97;;
10295;SDS011;5193;51.032;6.356;2023-07-02T01:11:56;18.97;;;7.87;;
10295;SDS011;5193;51.032;6.356;2023-07-02T01:14:34;13.00;;;7.77;;
10295;SDS011;5193;51.032;6.356;2023-07-02T01:17:03;13.30;;;7.63;;
10295;SDS011;5193;51.032;6.356;2023-07-02T01:19:50;15.07;;;8.30;;
10295;SDS011;5193;51.032;6.356;2023-07-02T01:22:24;22.43;;;8.37;;
10295;SDS011;5193;51.032;6.356;2023-07-02T01:24:51;15.63;;;7.97;;
10295;SDS011;5193;51.032;6.356;2023-07-02T01:27:17;15.63;;;7.37;;
10295;SDS011;5193;51.032;6.356;2023-07-02T01:29:43;15.40;;;7.77;;
10295;SDS011;5193;51.032;6.356;2023-07-02T01:32:15;18.63;;;8.73;;
10295;SDS011;5193;51.032;6.356;2023-07-02T01:34:41;19.20;;;9.23;;
10295;SDS011;5193;51.032;6.356;2023-07-02T01:37:08;19.20;;;9.60;;
10295;SDS011;5193;51.032;6.356;2023-07-02T01:39:34;18.67;;;9.67;;
10295;SDS011;5193;51.032;6.356;2023-07-02T01:42:10;21.87;;;9.57;;
10295;SDS011;5193;51.032;6.356;2023-07-02T01:44:41;19.90;;;9.67;;
10295;SDS011;5193;51.032;6.356;2023-07-02T01:47:07;18.20;;;9.07;;
10295;SDS011;5193;51.032;6.356;2023-07-02T01:49:32;20.03;;;9.27;;
10295;SDS011;5193;51.032;6.356;2023-07-02T01:51:58;19.23;;;8.83;;
10295;SDS011;5193;51.032;6.356;2023-07-02T01:54:25;23.13;;;10.00;;
10295;SDS011;5193;51.032;6.356;2023-07-02T01:56:54;19.57;;;9.70;;
10295;SDS011;5193;51.032;6.356;2023-07-02T01:59:20;21.13;;;9.97;;
10295;SDS011;5193;51.032;6.356;2023-07-02T02:01:46;18.77;;;10.07;;
10295;SDS011;5193;51.032;6.356;2023-07-02T02:04:11;22.03;;;10.17;;
10295;SDS011;5193;51.032;6.356;2023-07-02T02:06:37;20.13;;;9.83;;
10295;SDS011;5193;51.032;6.356;2023-07-02T02:09:04;20.23;;;10.53;;
10295;SDS011;5193;51.032;6.356;2023-07-02T02:11:33;21.70;;;10.20;;
10295;SDS011;5193;51.032;6.356;2023-07-02T02:14:03;24.57;;;11.07;;
10295;SDS011;5193;51.032;6.356;2023-07-02T02:16:29;21.27;;;10.50;;
10295;SDS011;5193;51.032;6.356;2023-07-02T02:18:54;20.60;;;10.47;;
10295;SDS011;5193;51.032;6.356;2023-07-02T02:21:20;20.20;;;10.43;;
10295;SDS011;5193;51.032;6.356;2023-07-02T02:23:47;21.50;;;10.40;;
10295;SDS011;5193;51.032;6.356;2023-07-02T02:26:13;22.93;;;11.77;;
10295;SDS011;5193;51.032;6.356;2023-07-02T02:28:39;21.73;;;10.97;;
10295;SDS011;5193;51.032;6.356;2023-07-02T02:31:04;22.97;;;11.93;;
10295;SDS011;5193;51.032;6.356;2023-07-02T02:33:30;20.03;;;10.00;;
10295;SDS011;5193;51.032;6.356;2023-07-02T02:35:56;22.70;;;11.57;;
10295;SDS011;5193;51.032;6.356;2023-07-02T02:38:22;25.97;;;11.50;;
10295;SDS011;5193;51.032;6.356;2023-07-02T02:40:47;22.47;;;11.97;;
10295;SDS011;5193;51.032;6.356;2023-07-02T02:43:13;21.90;;;10.97;;
10295;SDS011;5193;51.032;6.356;2023-07-02T02:45:41;25.03;;;11.63;;
10295;SDS011;5193;51.032;6.356;2023-07-02T02:48:07;20.87;;;11.47;;
10295;SDS011;5193;51.032;6.356;2023-07-02T02:50:33;24.27;;;11.10;;
10295;SDS011;5193;51.032;6.356;2023-07-02T02:52:58;25.03;;;12.30;;
10295;SDS011;5193;51.032;6.356;2023-07-02T02:55:24;19.13;;;10.90;;
10295;SDS011;5193;51.032;6.356;2023-07-02T02:57:49;22.17;;;12.33;;
10295;SDS011;5193;51.032;6.356;2023-07-02T03:00:15;21.63;;;12.13;;
10295;SDS011;5193;51.032;6.356;2023-07-02T03:02:41;19.87;;;11.30;;
10295;SDS011;5193;51.032;6.356;2023-07-02T03:05:07;21.57;;;11.27;;
10295;SDS011;5193;51.032;6.356;2023-07-02T03:07:33;25.63;;;12.57;;
10295;SDS011;5193;51.032;6.356;2023-07-02T03:10:00;27.10;;;13.03;;
10295;SDS011;5193;51.032;6.356;2023-07-02T03:12:26;26.80;;;13.57;;
10295;SDS011;5193;51.032;6.356;2023-07-02T03:14:51;26.63;;;13.30;;
10295;SDS011;5193;51.032;6.356;2023-07-02T03:17:19;25.33;;;13.03;;
10295;SDS011;5193;51.032;6.356;2023-07-02T03:19:45;26.03;;;13.10;;
10295;SDS011;5193;51.032;6.356;2023-07-02T03:22:11;24.63;;;12.90;;
10295;SDS011;5193;51.032;6.356;2023-07-02T03:24:37;29.57;;;13.67;;
10295;SDS011;5193;51.032;6.356;2023-07-02T03:27:03;30.93;;;13.73;;
10295;SDS011;5193;51.032;6.356;2023-07-02T03:29:29;26.50;;;12.80;;
10295;SDS011;5193;51.032;6.356;2023-07-02T03:31:54;27.30;;;13.13;;
10295;SDS011;5193;51.032;6.356;2023-07-02T03:34:20;29.60;;;14.13;;
10295;SDS011;5193;51.032;6.356;2023-07-02T03:36:47;27.97;;;13.90;;
10295;SDS011;5193;51.032;6.356;2023-07-02T03:39:13;25.30;;;13.20;;
10295;SDS011;5193;51.032;6.356;2023-07-02T03:41:38;28.27;;;14.97;;
10295;SDS011;5193;51.032;6.356;2023-07-02T03:44:04;32.80;;;14.73;;
10295;SDS011;5193;51.032;6.356;2023-07-02T03:46:30;33.17;;;14.33;;
10295;SDS011;5193;51.032;6.356;2023-07-02T03:48:59;29.00;;;13.50;;
10295;SDS011;5193;51.032;6.356;2023-07-02T03:51:24;28.67;;;14.63;;
10295;SDS011;5193;51.032;6.356;2023-07-02T03:53:50;24.00;;;14.27;;
10295;SDS011;5193;51.032;6.356;2023-07-02T03:56:18;34.10;;;14.37;;
10295;SDS011;5193;51.032;6.356;2023-07-02T03:58:44;27.67;;;14.20;;
10295;SDS011;5193;51.032;6.356;2023-07-02T04:01:10;26.63;;;15.73;;
10295;SDS011;5193;51.032;6.356;2023-07-02T04:03:36;31.80;;;15.20;;
10295;SDS011;5193;51.032;6.356;2023-07-02T04:06:01;33.13;;;15.13;;
10295;SDS011;5193;51.032;6.356;2023-07-02T04:08:27;25.93;;;14.50;;
10295;SDS011;5193;51.032;6.356;2023-07-02T04:10:56;31.47;;;14.50;;
10295;SDS011;5193;51.032;6.356;2023-07-02T04:13:21;30.87;;;14.50;;
10295;SDS011;5193;51.032;6.356;2023-07-02T04:15:47;33.37;;;16.33;;
10295;SDS011;5193;51.032;6.356;2023-07-02T04:18:12;34.13;;;15.43;;
10295;SDS011;5193;51.032;6.356;2023-07-02T04:20:38;29.27;;;14.67;;
10295;SDS011;5193;51.032;6.356;2023-07-02T04:23:04;27.63;;;15.20;;
10295;SDS011;5193;51.032;6.356;2023-07-02T04:25:33;28.43;;;14.17;;
10295;SDS011;5193;51.032;6.356;2023-07-02T04:27:59;28.37;;;15.73;;
10295;SDS011;5193;51.032;6.356;2023-07-02T04:30:25;31.17;;;15.63;;
10295;SDS011;5193;51.032;6.356;2023-07-02T04:32:51;30.57;;;16.03;;
10295;SDS011;5193;51.032;6.356;2023-07-02T04:35:17;36.83;;;15.83;;
10295;SDS011;5193;51.032;6.356;2023-07-02T04:37:43;29.03;;;15.27;;
10295;SDS011;5193;51.032;6.356;2023-07-02T04:40:08;30.47;;;15.93;;
10295;SDS011;5193;51.032;6.356;2023-07-02T04:42:35;33.10;;;14.97;;
10295;SDS011;5193;51.032;6.356;2023-07-02T04:45:05;30.97;;;16.10;;
10295;SDS011;5193;51.032;6.356;2023-07-02T04:47:31;30.50;;;15.50;;
10295;SDS011;5193;51.032;6.356;2023-07-02T04:49:57;36.33;;;16.10;;
10295;SDS011;5193;51.032;6.356;2023-07-02T04:52:23;35.23;;;15.83;;
10295;SDS011;5193;51.032;6.356;2023-07-02T04:54:49;33.13;;;16.27;;
10295;SDS011;5193;51.032;6.356;2023-07-02T04:57:14;32.10;;;15.37;;
10295;SDS011;5193;51.032;6.356;2023-07-02T04:59:43;34.80;;;16.17;;
10295;SDS011;5193;51.032;6.356;2023-07-02T05:02:09;30.27;;;15.77;;
10295;SDS011;5193;51.032;6.356;2023-07-02T05:04:35;33.43;;;15.20;;
10295;SDS011;5193;51.032;6.356;2023-07-02T05:07:02;33.87;;;16.07;;
10295;SDS011;5193;51.032;6.356;2023-07-02T05:09:29;35.93;;;16.73;;
10295;SDS011;5193;51.032;6.356;2023-07-02T05:11:55;37.13;;;16.50;;
10295;SDS011;5193;51.032;6.356;2023-07-02T05:14:20;36.30;;;16.33;;
10295;SDS011;5193;51.032;6.356;2023-07-02T05:16:47;31.53;;;15.87;;
10295;SDS011;5193;51.032;6.356;2023-07-02T05:19:13;32.80;;;16.20;;
10295;SDS011;5193;51.032;6.356;2023-07-02T05:21:39;34.93;;;16.80;;
10295;SDS011;5193;51.032;6.356;2023-07-02T05:24:04;32.83;;;16.43;;
10295;SDS011;5193;51.032;6.356;2023-07-02T05:26:30;35.57;;;17.03;;
10295;SDS011;5193;51.032;6.356;2023-07-02T05:28:56;40.37;;;16.10;;
10295;SDS011;5193;51.032;6.356;2023-07-02T05:31:21;35.23;;;16.77;;
10295;SDS011;5193;51.032;6.356;2023-07-02T05:33:47;35.83;;;16.40;;
10295;SDS011;5193;51.032;6.356;2023-07-02T05:36:12;32.00;;;16.47;;
10295;SDS011;5193;51.032;6.356;2023-07-02T05:38:38;31.60;;;16.67;;
10295;SDS011;5193;51.032;6.356;2023-07-02T05:41:04;33.50;;;16.60;;
10295;SDS011;5193;51.032;6.356;2023-07-02T05:43:29;40.50;;;17.67;;
10295;SDS011;5193;51.032;6.356;2023-07-02T05:45:57;35.60;;;17.87;;
10295;SDS011;5193;51.032;6.356;2023-07-02T05:48:25;38.53;;;17.63;;
10295;SDS011;5193;51.032;6.356;2023-07-02T05:50:51;34.23;;;17.30;;
10295;SDS011;5193;51.032;6.356;2023-07-02T05:53:17;39.57;;;16.97;;
10295;SDS011;5193;51.032;6.356;2023-07-02T05:55:42;34.13;;;16.80;;
10295;SDS011;5193;51.032;6.356;2023-07-02T05:58:08;39.63;;;18.67;;
10295;SDS011;5193;51.032;6.356;2023-07-02T06:00:34;34.37;;;17.27;;
10295;SDS011;5193;51.032;6.356;2023-07-02T06:02:59;37.33;;;17.57;;
10295;SDS011;5193;51.032;6.356;2023-07-02T06:05:25;38.10;;;18.90;;
10295;SDS011;5193;51.032;6.356;2023-07-02T06:07:51;36.00;;;17.97;;
10295;SDS011;5193;51.032;6.356;2023-07-02T06:10:16;36.80;;;17.47;;
10295;SDS011;5193;51.032;6.356;2023-07-02T06:12:42;33.30;;;15.50;;
10295;SDS011;5193;51.032;6.356;2023-07-02T06:15:08;34.07;;;17.73;;
10295;SDS011;5193;51.032;6.356;2023-07-02T06:17:34;35.03;;;18.03;;
10295;SDS011;5193;51.032;6.356;2023-07-02T06:20:00;42.10;;;18.30;;
10295;SDS011;5193;51.032;6.356;2023-07-02T06:22:29;34.90;;;15.63;;
10295;SDS011;5193;51.032;6.356;2023-07-02T06:24:55;35.53;;;16.43;;
10295;SDS011;5193;51.032;6.356;2023-07-02T06:27:20;31.27;;;15.77;;
10295;SDS011;5193;51.032;6.356;2023-07-02T06:29:46;34.93;;;17.47;;
10295;SDS011;5193;51.032;6.356;2023-07-02T06:32:12;35.20;;;17.00;;
10295;SDS011;5193;51.032;6.356;2023-07-02T06:34:38;34.77;;;17.40;;
10295;SDS011;5193;51.032;6.356;2023-07-02T06:37:04;32.80;;;16.63;;
10295;SDS011;5193;51.032;6.356;2023-07-02T06:39:30;41.40;;;16.93;;
10295;SDS011;5193;51.032;6.356;2023-07-02T06:41:55;27.03;;;15.47;;
10295;SDS011;5193;51.032;6.356;2023-07-02T06:44:21;37.80;;;16.43;;
10295;SDS011;5193;51.032;6.356;2023-07-02T06:46:47;30.40;;;16.73;;
10295;SDS011;5193;51.032;6.356;2023-07-02T06:49:12;30.00;;;15.70;;
10295;SDS011;5193;51.032;6.356;2023-07-02T06:51:38;29.30;;;15.93;;
10295;SDS011;5193;51.032;6.356;2023-07-02T06:54:04;30.67;;;15.63;;
10295;SDS011;5193;51.032;6.356;2023-07-02T06:56:30;39.63;;;17.27;;
10295;SDS011;5193;51.032;6.356;2023-07-02T06:58:57;38.57;;;17.33;;
10295;SDS011;5193;51.032;6.356;2023-07-02T07:01:23;34.60;;;16.43;;
10295;SDS011;5193;51.032;6.356;2023-07-02T07:03:48;33.67;;;16.77;;
10295;SDS011;5193;51.032;6.356;2023-07-02T07:06:14;32.33;;;17.47;;
10295;SDS011;5193;51.032;6.356;2023-07-02T07:08:40;36.27;;;17.50;;
10295;SDS011;5193;51.032;6.356;2023-07-02T07:11:06;27.83;;;16.30;;
10295;SDS011;5193;51.032;6.356;2023-07-02T07:13:31;33.30;;;16.33;;
10295;SDS011;5193;51.032;6.356;2023-07-02T07:15:57;33.23;;;16.47;;
10295;SDS011;5193;51.032;6.356;2023-07-02T07:18:23;30.30;;;16.20;;
10295;SDS011;5193;51.032;6.356;2023-07-02T07:20:48;31.70;;;14.73;;
10295;SDS011;5193;51.032;6.356;2023-07-02T07:23:15;34.73;;;15.33;;
10295;SDS011;5193;51.032;6.356;2023-07-02T07:25:42;33.53;;;15.50;;
10295;SDS011;5193;51.032;6.356;2023-07-02T07:28:07;27.70;;;14.70;;
10295;SDS011;5193;51.032;6.356;2023-07-02T07:30:36;28.20;;;14.60;;
10295;SDS011;5193;51.032;6.356;2023-07-02T07:33:02;26.03;;;14.03;;
10295;SDS011;5193;51.032;6.356;2023-07-02T07:35:28;31.90;;;15.07;;
10295;SDS011;5193;51.032;6.356;2023-07-02T07:37:53;28.67;;;14.73;;
10295;SDS011;5193;51.032;6.356;2023-07-02T07:40:19;34.43;;;14.93;;
10295;SDS011;5193;51.032;6.356;2023-07-02T07:42:44;28.10;;;14.27;;
10295;SDS011;5193;51.032;6.356;2023-07-02T07:45:10;29.67;;;13.63;;
10295;SDS011;5193;51.032;6.356;2023-07-02T07:47:36;33.57;;;14.80;;
10295;SDS011;5193;51.032;6.356;2023-07-02T07:50:02;26.87;;;14.57;;
10295;SDS011;5193;51.032;6.356;2023-07-02T07:52:33;25.40;;;13.80;;
10295;SDS011;5193;51.032;6.356;2023-07-02T07:54:59;31.30;;;13.90;;
10295;SDS011;5193;51.032;6.356;2023-07-02T07:57:25;30.03;;;13.97;;
10295;SDS011;5193;51.032;6.356;2023-07-02T07:59:50;27.80;;;14.00;;
10295;SDS011;5193;51.032;6.356;2023-07-02T08:02:16;27.20;;;13.70;;
10295;SDS011;5193;51.032;6.356;2023-07-02T08:04:41;31.50;;;14.30;;
10295;SDS011;5193;51.032;6.356;2023-07-02T08:07:07;28.10;;;13.77;;
10295;SDS011;5193;51.032;6.356;2023-07-02T08:09:34;32.77;;;15.20;;
10295;SDS011;5193;51.032;6.356;2023-07-02T08:12:00;31.90;;;15.23;;
10295;SDS011;5193;51.032;6.356;2023-07-02T08:14:25;25.63;;;14.70;;
10295;SDS011;5193;51.032;6.356;2023-07-02T08:16:51;28.30;;;13.53;;
10295;SDS011;5193;51.032;6.356;2023-07-02T08:19:16;27.83;;;13.67;;
10295;SDS011;5193;51.032;6.356;2023-07-02T08:21:42;31.43;;;14.90;;
10295;SDS011;5193;51.032;6.356;2023-07-02T08:24:08;31.33;;;14.57;;
10295;SDS011;5193;51.032;6.356;2023-07-02T08:26:33;28.93;;;14.30;;
10295;SDS011;5193;51.032;6.356;2023-07-02T08:28:59;27.93;;;14.83;;
10295;SDS011;5193;51.032;6.356;2023-07-02T08:31:24;30.87;;;15.17;;
10295;SDS011;5193;51.032;6.356;2023-07-02T08:33:50;29.67;;;14.43;;
10295;SDS011;5193;51.032;6.356;2023-07-02T08:36:16;27.80;;;13.77;;
10295;SDS011;5193;51.032;6.356;2023-07-02T08:38:41;26.20;;;14.10;;
10295;SDS011;5193;51.032;6.356;2023-07-02T08:41:08;31.53;;;14.20;;
10295;SDS011;5193;51.032;6.356;2023-07-02T08:43:33;29.73;;;14.17;;
10295;SDS011;5193;51.032;6.356;2023-07-02T08:46:01;28.53;;;14.73;;
10295;SDS011;5193;51.032;6.356;2023-07-02T08:48:27;26.67;;;14.30;;
10295;SDS011;5193;51.032;6.356;2023-07-02T08:50:54;29.77;;;14.03;;
10295;SDS011;5193;51.032;6.356;2023-07-02T08:53:20;24.57;;;12.97;;
10295;SDS011;5193;51.032;6.356;2023-07-02T08:55:54;27.87;;;13.70;;
10295;SDS011;5193;51.032;6.356;2023-07-02T08:58:20;27.47;;;13.13;;
10295;SDS011;5193;51.032;6.356;2023-07-02T09:03:35;29.47;;;14.03;;
10295;SDS011;5193;51.032;6.356;2023-07-02T09:06:02;26.30;;;14.40;;
10295;SDS011;5193;51.032;6.356;2023-07-02T09:08:29;25.90;;;13.60;;
10295;SDS011;5193;51.032;6.356;2023-07-02T09:11:04;25.17;;;13.77;;
10295;SDS011;5193;51.032;6.356;2023-07-02T09:18:57;26.20;;;14.20;;
10295;SDS011;5193;51.032;6.356;2023-07-02T09:21:43;28.60;;;14.47;;
10295;SDS011;5193;51.032;6.356;2023-07-02T09:24:14;27.77;;;15.20;;
10295;SDS011;5193;51.032;6.356;2023-07-02T09:26:47;27.97;;;15.80;;
10295;SDS011;5193;51.032;6.356;2023-07-02T09:29:28;29.37;;;14.73;;
10295;SDS011;5193;51.032;6.356;2023-07-02T09:31:59;30.10;;;16.63;;
10295;SDS011;5193;51.032;6.356;2023-07-02T09:34:26;27.20;;;15.70;;
10295;SDS011;5193;51.032;6.356;2023-07-02T09:36:53;29.47;;;15.47;;
10295;SDS011;5193;51.032;6.356;2023-07-02T09:39:19;24.80;;;15.00;;
10295;SDS011;5193;51.032;6.356;2023-07-02T09:41:51;26.30;;;14.47;;
10295;SDS011;5193;51.032;6.356;2023-07-02T09:44:17;30.27;;;15.60;;
10295;SDS011;5193;51.032;6.356;2023-07-02T09:46:49;26.10;;;14.53;;
10295;SDS011;5193;51.032;6.356;2023-07-02T09:49:23;28.07;;;14.67;;
10295;SDS011;5193;51.032;6.356;2023-07-02T09:51:52;25.83;;;15.80;;
10295;SDS011;5193;51.032;6.356;2023-07-02T09:54:18;29.17;;;14.43;;
10295;SDS011;5193;51.032;6.356;2023-07-02T09:56:45;29.83;;;14.90;;
10295;SDS011;5193;51.032;6.356;2023-07-02T09:59:13;20.47;;;12.67;;
10295;SDS011;5193;51.032;6.356;2023-07-02T10:01:40;19.50;;;11.93;;
10295;SDS011;5193;51.032;6.356;2023-07-02T10:04:14;23.50;;;12.17;;
10295;SDS011;5193;51.032;6.356;2023-07-02T10:09:17;24.97;;;12.60;;
10295;SDS011;5193;51.032;6.356;2023-07-02T10:11:58;24.33;;;13.23;;
10295;SDS011;5193;51.032;6.356;2023-07-02T10:14:24;23.50;;;12.17;;
10295;SDS011;5193;51.032;6.356;2023-07-02T10:16:53;22.57;;;11.77;;
10295;SDS011;5193;51.032;6.356;2023-07-02T10:19:20;25.53;;;11.53;;
10295;SDS011;5193;51.032;6.356;2023-07-02T10:21:46;22.07;;;11.63;;
10295;SDS011;5193;51.032;6.356;2023-07-02T10:24:25;22.20;;;11.63;;
10295;SDS011;5193;51.032;6.356;2023-07-02T10:26:54;20.10;;;10.60;;
10295;SDS011;5193;51.032;6.356;2023-07-02T10:29:25;22.97;;;10.90;;
10295;SDS011;5193;51.032;6.356;2023-07-02T10:31:52;20.73;;;11.50;;
10295;SDS011;5193;51.032;6.356;2023-07-02T10:34:32;22.67;;;10.77;;
10295;SDS011;5193;51.032;6.356;2023-07-02T10:37:02;17.83;;;10.33;;
10295;SDS011;5193;51.032;6.356;2023-07-02T10:39:29;21.40;;;10.10;;
10295;SDS011;5193;51.032;6.356;2023-07-02T10:42:05;22.13;;;10.47;;
10295;SDS011;5193;51.032;6.356;2023-07-02T10:44:32;21.10;;;11.07;;
10295;SDS011;5193;51.032;6.356;2023-07-02T10:46:58;18.60;;;9.80;;
10295;SDS011;5193;51.032;6.356;2023-07-02T10:49:30;22.70;;;10.00;;
10295;SDS011;5193;51.032;6.356;2023-07-02T10:51:59;21.73;;;10.20;;
10295;SDS011;5193;51.032;6.356;2023-07-02T10:54:26;15.80;;;9.73;;
10295;SDS011;5193;51.032;6.356;2023-07-02T10:57:03;17.83;;;9.50;;
10295;SDS011;5193;51.032;6.356;2023-07-02T10:59:29;24.17;;;10.77;;
10295;SDS011;5193;51.032;6.356;2023-07-02T11:01:54;15.77;;;9.67;;
10295;SDS011;5193;51.032;6.356;2023-07-02T11:04:23;23.60;;;10.10;;
10295;SDS011;5193;51.032;6.356;2023-07-02T11:06:49;18.17;;;9.07;;
10295;SDS011;5193;51.032;6.356;2023-07-02T11:09:18;17.63;;;8.73;;
10295;SDS011;5193;51.032;6.356;2023-07-02T11:12:01;15.87;;;8.10;;
10295;SDS011;5193;51.032;6.356;2023-07-02T11:14:27;18.63;;;8.63;;
10295;SDS011;5193;51.032;6.356;2023-07-02T11:16:54;17.13;;;8.47;;
10295;SDS011;5193;51.032;6.356;2023-07-02T11:19:20;23.73;;;6.93;;
10295;SDS011;5193;51.032;6.356;2023-07-02T11:21:53;15.53;;;7.03;;
10295;SDS011;5193;51.032;6.356;2023-07-02T11:24:28;13.00;;;7.57;;
10295;SDS011;5193;51.032;6.356;2023-07-02T11:26:58;19.53;;;6.87;;
10295;SDS011;5193;51.032;6.356;2023-07-02T11:29:25;17.13;;;7.27;;
10295;SDS011;5193;51.032;6.356;2023-07-02T11:31:51;14.77;;;6.60;;
10295;SDS011;5193;51.032;6.356;2023-07-02T11:34:18;16.13;;;7.07;;
10295;SDS011;5193;51.032;6.356;2023-07-02T11:36:45;11.77;;;6.67;;
10295;SDS011;5193;51.032;6.356;2023-07-02T11:39:11;15.30;;;6.83;;
10295;SDS011;5193;51.032;6.356;2023-07-02T11:41:41;11.27;;;6.13;;
10295;SDS011;5193;51.032;6.356;2023-07-02T11:44:08;17.63;;;7.07;;
10295;SDS011;5193;51.032;6.356;2023-07-02T11:46:34;15.80;;;7.13;;
10295;SDS011;5193;51.032;6.356;2023-07-02T11:49:00;15.50;;;7.30;;
10295;SDS011;5193;51.032;6.356;2023-07-02T11:51:27;16.90;;;7.27;;
10295;SDS011;5193;51.032;6.356;2023-07-02T11:53:53;15.10;;;7.00;;
10295;SDS011;5193;51.032;6.356;2023-07-02T11:56:18;13.20;;;6.70;;
10295;SDS011;5193;51.032;6.356;2023-07-02T11:58:44;14.70;;;7.33;;
10295;SDS011;5193;51.032;6.356;2023-07-02T12:01:10;13.63;;;7.63;;
10295;SDS011;5193;51.032;6.356;2023-07-02T12:03:35;14.37;;;6.53;;
10295;SDS011;5193;51.032;6.356;2023-07-02T12:06:01;18.67;;;8.17;;
10295;SDS011;5193;51.032;6.356;2023-07-02T12:08:26;12.43;;;7.03;;
10295;SDS011;5193;51.032;6.356;2023-07-02T12:10:52;13.53;;;6.90;;
10295;SDS011;5193;51.032;6.356;2023-07-02T12:13:18;17.50;;;8.00;;
10295;SDS011;5193;51.032;6.356;2023-07-02T12:15:46;16.30;;;7.67;;
10295;SDS011;5193;51.032;6.356;2023-07-02T12:18:12;17.00;;;8.70;;
10295;SDS011;5193;51.032;6.356;2023-07-02T12:20:38;18.00;;;9.03;;
10295;SDS011;5193;51.032;6.356;2023-07-02T12:23:04;16.47;;;8.13;;
10295;SDS011;5193;51.032;6.356;2023-07-02T12:25:36;15.47;;;8.67;;
10295;SDS011;5193;51.032;6.356;2023-07-02T12:28:05;16.27;;;8.03;;
10295;SDS011;5193;51.032;6.356;2023-07-02T12:30:31;14.20;;;8.23;;
10295;SDS011;5193;51.032;6.356;2023-07-02T12:32:57;14.77;;;8.77;;
10295;SDS011;5193;51.032;6.356;2023-07-02T12:35:23;15.73;;;8.27;;
10295;SDS011;5193;51.032;6.356;2023-07-02T12:37:52;17.67;;;7.97;;
10295;SDS011;5193;51.032;6.356;2023-07-02T12:40:25;13.37;;;7.90;;
10295;SDS011;5193;51.032;6.356;2023-07-02T12:42:50;15.17;;;8.00;;
10295;SDS011;5193;51.032;6.356;2023-07-02T12:45:16;16.87;;;8.13;;
10295;SDS011;5193;51.032;6.356;2023-07-02T12:47:42;18.10;;;8.60;;
10295;SDS011;5193;51.032;6.356;2023-07-02T12:50:08;21.87;;;9.50;;
10295;SDS011;5193;51.032;6.356;2023-07-02T12:52:34;15.73;;;8.30;;
10295;SDS011;5193;51.032;6.356;2023-07-02T12:55:00;17.93;;;9.40;;
10295;SDS011;5193;51.032;6.356;2023-07-02T12:57:26;15.57;;;8.27;;
10295;SDS011;5193;51.032;6.356;2023-07-02T12:59:52;18.30;;;9.23;;
10295;SDS011;5193;51.032;6.356;2023-07-02T13:02:18;19.87;;;9.43;;
10295;SDS011;5193;51.032;6.356;2023-07-02T13:04:45;18.77;;;8.57;;
10295;SDS011;5193;51.032;6.356;2023-07-02T13:07:10;13.17;;;8.10;;
10295;SDS011;5193;51.032;6.356;2023-07-02T13:09:36;17.30;;;8.60;;
10295;SDS011;5193;51.032;6.356;2023-07-02T13:12:02;15.17;;;7.93;;
10295;SDS011;5193;51.032;6.356;2023-07-02T13:14:27;18.25;;;8.80;;
10295;SDS011;5193;51.032;6.356;2023-07-02T13:16:53;17.87;;;9.20;;
10295;SDS011;5193;51.032;6.356;2023-07-02T13:19:18;15.47;;;8.40;;
10295;SDS011;5193;51.032;6.356;2023-07-02T13:21:44;17.17;;;9.57;;
10295;SDS011;5193;51.032;6.356;2023-07-02T13:24:10;15.17;;;9.47;;
10295;SDS011;5193;51.032;6.356;2023-07-02T13:26:37;18.27;;;9.10;;
10295;SDS011;5193;51.032;6.356;2023-07-02T13:29:02;15.03;;;8.57;;
10295;SDS011;5193;51.032;6.356;2023-07-02T13:31:28;17.03;;;8.57;;
10295;SDS011;5193;51.032;6.356;2023-07-02T13:33:54;16.40;;;8.20;;
10295;SDS011;5193;51.032;6.356;2023-07-02T13:36:19;14.73;;;8.23;;
10295;SDS011;5193;51.032;6.356;2023-07-02T13:38:45;15.40;;;8.03;;
10295;SDS011;5193;51.032;6.356;2023-07-02T13:41:10;21.43;;;8.83;;
10295;SDS011;5193;51.032;6.356;2023-07-02T13:43:36;16.07;;;8.63;;
10295;SDS011;5193;51.032;6.356;2023-07-02T13:46:02;14.73;;;8.87;;
10295;SDS011;5193;51.032;6.356;2023-07-02T13:48:28;15.93;;;8.57;;
10295;SDS011;5193;51.032;6.356;2023-07-02T13:50:53;15.37;;;8.27;;
10295;SDS011;5193;51.032;6.356;2023-07-02T13:53:19;16.10;;;9.23;;
10295;SDS011;5193;51.032;6.356;2023-07-02T13:55:45;15.27;;;8.97;;
10295;SDS011;5193;51.032;6.356;2023-07-02T13:58:11;20.45;;;10.05;;
10295;SDS011;5193;51.032;6.356;2023-07-02T14:00:36;13.77;;;8.00;;
10295;SDS011;5193;51.032;6.356;2023-07-02T14:03:02;16.40;;;9.57;;
10295;SDS011;5193;51.032;6.356;2023-07-02T14:05:28;19.43;;;9.40;;
10295;SDS011;5193;51.032;6.356;2023-07-02T14:07:54;15.57;;;9.30;;
10295;SDS011;5193;51.032;6.356;2023-07-02T14:10:20;13.07;;;8.43;;
10295;SDS011;5193;51.032;6.356;2023-07-02T14:12:45;16.17;;;9.10;;
10295;SDS011;5193;51.032;6.356;2023-07-02T14:15:11;17.17;;;8.40;;
10295;SDS011;5193;51.032;6.356;2023-07-02T14:17:37;15.48;;;8.20;;
10295;SDS011;5193;51.032;6.356;2023-07-02T14:20:02;16.95;;;10.00;;
10295;SDS011;5193;51.032;6.356;2023-07-02T14:22:29;14.30;;;8.45;;
10295;SDS011;5193;51.032;6.356;2023-07-02T14:24:54;21.48;;;10.43;;
10295;SDS011;5193;51.032;6.356;2023-07-02T14:27:20;19.20;;;8.93;;
10295;SDS011;5193;51.032;6.356;2023-07-02T14:29:45;18.63;;;9.52;;
10295;SDS011;5193;51.032;6.356;2023-07-02T14:32:14;16.35;;;9.13;;
10295;SDS011;5193;51.032;6.356;2023-07-02T14:34:40;15.95;;;9.07;;
10295;SDS011;5193;51.032;6.356;2023-07-02T14:37:06;16.63;;;9.10;;
10295;SDS011;5193;51.032;6.356;2023-07-02T14:39:32;19.13;;;8.77;;
10295;SDS011;5193;51.032;6.356;2023-07-02T14:41:58;19.17;;;9.75;;
10295;SDS011;5193;51.032;6.356;2023-07-02T14:44:23;15.88;;;8.90;;
10295;SDS011;5193;51.032;6.356;2023-07-02T14:46:49;14.80;;;9.30;;
10295;SDS011;5193;51.032;6.356;2023-07-02T14:49:15;21.42;;;9.77;;